Time;durP1;ratioP1;P1;durP2;ratioP2;P2;SDS_P1;SDS_P2;PMS_P1;PMS_P2;Temp;Humidity;BMP_temperature;BMP_pressure;BME280_temperature;BME280_humidity;BME280_pressure;Samples;Min_cycle;Max_cycle;Signal;HPM_P1;HPM_P2
2022/11/02 00:01:02;;;;;;;;;;;12.30;99.90;;;;;;5009492;28;19926;-69
2022/11/02 00:03:27;;;;;;;;;;;12.30;99.90;;;;;;5003500;28;20318;-69
2022/11/02 00:05:53;;;;;;;;;;;12.30;99.90;;;;;;5007411;28;19933;-69
2022/11/02 00:08:18;;;;;;;;;;;12.20;99.90;;;;;;5013277;28;19925;-70
2022/11/02 00:10:44;;;;;;;;;;;12.20;99.90;;;;;;4997629;28;20434;-68
2022/11/02 00:13:09;;;;;;;;;;;12.20;99.90;;;;;;5013276;28;20378;-69
2022/11/02 00:15:35;;;;;;;;;;;12.10;99.90;;;;;;5012383;28;19972;-69
2022/11/02 00:18:03;;;;;;;;;;;12.10;99.90;;;;;;5010705;28;19957;-69
2022/11/02 00:20:29;;;;;;;;;;;12.10;99.90;;;;;;4991847;28;19937;-69
2022/11/02 00:22:56;;;;;;;;;;;12.00;99.90;;;;;;5014110;28;20046;-69
2022/11/02 00:25:22;;;;;;;;;;;12.00;99.90;;;;;;5012718;28;19921;-69
2022/11/02 00:27:48;;;;;;;;;;;12.00;99.90;;;;;;5013913;28;19921;-69
2022/11/02 00:30:13;;;;;;;;;;;12.00;99.90;;;;;;5018875;28;19926;-69
2022/11/02 00:32:39;;;;;;;;;;;12.00;99.90;;;;;;5013332;28;19929;-68
2022/11/02 00:35:05;;;;;;;;;;;12.00;99.90;;;;;;5012383;28;20020;-69
2022/11/02 00:37:30;;;;;;;;;;;11.90;99.90;;;;;;5005327;28;19926;-68
2022/11/02 00:39:56;;;;;;;;;;;12.00;99.90;;;;;;5005037;28;19925;-69
2022/11/02 00:42:22;;;;;;;;;;;12.00;99.90;;;;;;5012326;28;20005;-68
2022/11/02 00:44:47;;;;;;;;;;;12.10;99.90;;;;;;5011772;28;19995;-69
2022/11/02 00:47:13;;;;;;;;;;;12.20;99.90;;;;;;5013571;28;19929;-68
2022/11/02 00:49:38;;;;;;;;;;;12.30;99.90;;;;;;5000468;28;20426;-69
2022/11/02 00:52:04;;;;;;;;;;;12.30;99.90;;;;;;5018636;23;19925;-68
2022/11/02 00:54:29;;;;;;;;;;;12.20;99.90;;;;;;5052541;28;19973;-68
2022/11/02 00:56:55;;;;;;;;;;;12.20;99.90;;;;;;5052211;28;19929;-68
2022/11/02 00:59:20;;;;;;;;;;;12.10;99.90;;;;;;5053072;28;19925;-68
2022/11/02 01:01:48;;;;;;;;;;;12.00;99.90;;;;;;5069495;28;20328;-68
2022/11/02 01:04:14;;;;;;;;;;;11.90;99.90;;;;;;5036050;28;19932;-68
2022/11/02 01:06:40;;;;;;;;;;;11.80;99.90;;;;;;5053205;28;19928;-68
2022/11/02 01:09:05;;;;;;;;;;;11.70;99.90;;;;;;5050936;28;19932;-68
2022/11/02 01:11:31;;;;;;;;;;;11.60;99.90;;;;;;5052873;28;19921;-68
2022/11/02 01:13:56;;;;;;;;;;;11.50;99.90;;;;;;5053735;28;19921;-68
2022/11/02 01:16:22;;;;;;;;;;;11.50;99.90;;;;;;5068741;28;19929;-68
2022/11/02 01:18:50;;;;;;;;;;;11.40;99.90;;;;;;5048061;28;19921;-68
2022/11/02 01:21:16;;;;;;;;;;;11.30;99.90;;;;;;5052825;28;19960;-68
2022/11/02 01:23:41;;;;;;;;;;;11.20;99.90;;;;;;5067907;28;19959;-68
2022/11/02 01:26:08;;;;;;;;;;;11.20;99.90;;;;;;5025595;28;19921;-68
2022/11/02 01:28:33;;;;;;;;;;;11.20;99.90;;;;;;5049384;28;20271;-68
2022/11/02 01:30:59;;;;;;;;;;;11.20;99.90;;;;;;5050048;28;19928;-68
2022/11/02 01:33:25;;;;;;;;;;;11.10;99.90;;;;;;5064568;28;20389;-68
2022/11/02 01:35:51;;;;;;;;;;;11.10;99.90;;;;;;5043864;28;20011;-68
2022/11/02 01:38:17;;;;;;;;;;;11.00;99.90;;;;;;5068389;28;20019;-68
2022/11/02 01:40:42;;;;;;;;;;;11.00;99.90;;;;;;5050543;28;20321;-68
2022/11/02 01:43:18;;;;;;;;;;;11.00;99.90;;;;;;5052373;28;19971;-68
2022/11/02 01:45:44;;;;;;;;;;;10.80;99.90;;;;;;5051605;28;19994;-69
2022/11/02 01:48:09;;;;;;;;;;;10.80;99.90;;;;;;5049546;28;19924;-69
2022/11/02 01:50:35;;;;;;;;;;;10.80;99.90;;;;;;5050535;28;20358;-69
2022/11/02 01:53:00;;;;;;;;;;;10.70;99.90;;;;;;5066254;28;20008;-69
2022/11/02 01:55:28;;;;;;;;;;;10.60;99.90;;;;;;5049837;28;20386;-69
2022/11/02 01:57:58;;;;;;;;;;;10.60;99.90;;;;;;5048471;28;19931;-68
2022/11/02 02:00:24;;;;;;;;;;;10.50;99.90;;;;;;5048438;28;19928;-69
2022/11/02 02:03:01;;;;;;;;;;;10.50;99.90;;;;;;5050716;28;19931;-68
2022/11/02 02:05:28;;;;;;;;;;;10.50;99.90;;;;;;5048958;28;20019;-69
2022/11/02 02:07:54;;;;;;;;;;;10.50;99.90;;;;;;5048609;28;20362;-69
2022/11/02 02:10:19;;;;;;;;;;;10.50;99.90;;;;;;5050474;28;19924;-69
2022/11/02 02:12:45;;;;;;;;;;;10.60;99.90;;;;;;5048918;28;19924;-68
2022/11/02 02:15:11;;;;;;;;;;;10.70;99.90;;;;;;5051251;28;19925;-69
2022/11/02 02:17:55;;;;;;;;;;;10.70;99.90;;;;;;5050511;28;20422;-69
2022/11/02 02:20:39;;;;;;;;;;;10.80;99.90;;;;;;5048842;28;19929;-69
2022/11/02 02:23:24;;;;;;;;;;;10.90;99.90;;;;;;5050657;28;20019;-69
2022/11/02 02:25:49;;;;;;;;;;;11.00;99.90;;;;;;5042421;28;19921;-69
2022/11/02 02:28:21;;;;;;;;;;;11.00;99.90;;;;;;5050545;28;19921;-68
2022/11/02 02:30:58;;;;;;;;;;;11.00;99.90;;;;;;5048521;28;20278;-68
2022/11/02 02:33:33;;;;;;;;;;;11.00;99.90;;;;;;5063308;28;20015;-68
2022/11/02 02:36:01;;;;;;;;;;;11.10;99.90;;;;;;5048474;28;19924;-68
2022/11/02 02:38:36;;;;;;;;;;;11.20;99.90;;;;;;5051385;28;20146;-68
2022/11/02 02:41:10;;;;;;;;;;;11.20;99.90;;;;;;5067055;28;19924;-69
2022/11/02 02:43:39;;;;;;;;;;;11.20;99.90;;;;;;5049379;28;19929;-69
2022/11/02 02:46:11;;;;;;;;;;;11.20;99.90;;;;;;5044936;28;19963;-69
2022/11/02 02:48:39;;;;;;;;;;;11.20;99.90;;;;;;5037460;28;19928;-68
2022/11/02 02:51:06;;;;;;;;;;;11.30;99.90;;;;;;5050727;28;20384;-69
2022/11/02 02:54:05;;;;;;;;;;;11.30;99.90;;;;;;5050713;28;19920;-69
2022/11/02 02:56:36;;;;;;;;;;;11.30;99.90;;;;;;5006204;28;20401;-69
2022/11/02 02:59:04;;;;;;;;;;;11.30;99.90;;;;;;5048472;28;19920;-69
2022/11/02 03:01:31;;;;;;;;;;;11.30;99.90;;;;;;5044447;28;20386;-69
2022/11/02 03:03:56;;;;;;;;;;;11.40;99.90;;;;;;5056892;28;20416;-68
2022/11/02 03:06:28;;;;;;;;;;;11.40;99.90;;;;;;5045342;28;19925;-69
2022/11/02 03:09:00;;;;;;;;;;;11.30;99.90;;;;;;5044804;28;19978;-68
2022/11/02 03:11:26;;;;;;;;;;;11.30;99.90;;;;;;5030472;28;19925;-69
2022/11/02 03:13:54;;;;;;;;;;;11.20;99.90;;;;;;5051311;28;19928;-69
2022/11/02 03:16:22;;;;;;;;;;;11.10;99.90;;;;;;5050177;28;19947;-69
2022/11/02 03:18:53;;;;;;;;;;;11.10;99.90;;;;;;5044089;28;19936;-69
2022/11/02 03:21:25;;;;;;;;;;;10.90;99.90;;;;;;5045400;28;19943;-69
2022/11/02 03:23:57;;;;;;;;;;;10.90;99.90;;;;;;5047196;28;20011;-69
2022/11/02 03:26:30;;;;;;;;;;;10.80;99.90;;;;;;5048377;28;20370;-69
2022/11/02 03:29:04;;;;;;;;;;;10.70;99.90;;;;;;5046610;28;20324;-69
2022/11/02 03:31:39;;;;;;;;;;;10.70;99.90;;;;;;5050739;28;20057;-69
2022/11/02 03:34:24;;;;;;;;;;;10.60;99.90;;;;;;5044579;28;20073;-69
2022/11/02 03:37:08;;;;;;;;;;;10.50;99.90;;;;;;5043905;28;19963;-69
2022/11/02 03:39:42;;;;;;;;;;;10.50;99.90;;;;;;5049142;28;19920;-68
2022/11/02 03:42:10;;;;;;;;;;;10.50;99.90;;;;;;5049201;28;19925;-68
2022/11/02 03:44:37;;;;;;;;;;;10.50;99.90;;;;;;5046301;28;19929;-68
2022/11/02 03:47:04;;;;;;;;;;;10.60;99.90;;;;;;5026490;28;19971;-69
2022/11/02 03:49:30;;;;;;;;;;;10.60;99.90;;;;;;5047892;28;19994;-69
2022/11/02 03:51:58;;;;;;;;;;;10.60;99.90;;;;;;5052248;28;19999;-69
2022/11/02 03:54:38;;;;;;;;;;;10.50;99.90;;;;;;5053220;28;19928;-69
2022/11/02 03:57:06;;;;;;;;;;;10.50;99.90;;;;;;5052062;28;19921;-68
2022/11/02 03:59:31;;;;;;;;;;;10.50;99.90;;;;;;5051481;28;19982;-69
2022/11/02 04:01:58;;;;;;;;;;;10.40;99.90;;;;;;5071341;28;20366;-68
2022/11/02 04:04:24;;;;;;;;;;;10.50;99.90;;;;;;5049068;28;19928;-69
2022/11/02 04:06:50;;;;;;;;;;;10.50;99.90;;;;;;5050560;28;20006;-69
2022/11/02 04:09:16;;;;;;;;;;;10.40;99.90;;;;;;5064275;28;19924;-69
2022/11/02 04:14:38;;;;;;;;;;;10.50;99.90;;;;;;5051665;28;19982;-69
2022/11/02 04:19:48;;;;;;;;;;;10.50;99.90;;;;;;5046884;28;20550;-69
2022/11/02 04:27:42;;;;;;;;;;;10.60;99.90;;;;;;5051050;28;20381;-69
2022/11/02 04:30:08;;;;;;;;;;;10.50;99.90;;;;;;5052036;28;19959;-69
2022/11/02 04:35:21;;;;;;;;;;;10.60;99.90;;;;;;5051451;28;19928;-69
2022/11/02 04:40:31;;;;;;;;;;;10.60;99.90;;;;;;5051031;28;20011;-69
2022/11/02 04:42:57;;;;;;;;;;;10.60;99.90;;;;;;5066209;28;20004;-69
2022/11/02 04:45:22;;;;;;;;;;;10.60;99.90;;;;;;5067095;28;20446;-69
2022/11/02 04:47:47;;;;;;;;;;;10.80;99.90;;;;;;5065628;28;19974;-68
2022/11/02 04:50:13;;;;;;;;;;;10.80;99.90;;;;;;5049595;28;20015;-68
2022/11/02 04:52:38;;;;;;;;;;;10.80;99.90;;;;;;5055536;28;19932;-69
2022/11/02 04:55:04;;;;;;;;;;;10.80;99.90;;;;;;5067811;28;20349;-69
2022/11/02 04:57:30;;;;;;;;;;;10.80;99.90;;;;;;5053548;28;19924;-68
2022/11/02 04:59:55;;;;;;;;;;;10.80;99.90;;;;;;5068715;28;19928;-68
2022/11/02 05:02:20;;;;;;;;;;;10.80;99.90;;;;;;5051998;28;19928;-68
2022/11/02 05:04:46;;;;;;;;;;;10.80;99.90;;;;;;5053863;28;19925;-68
2022/11/02 05:07:11;;;;;;;;;;;10.70;99.90;;;;;;5066782;28;19955;-68
2022/11/02 05:09:37;;;;;;;;;;;10.70;99.90;;;;;;5052483;28;19920;-68
2022/11/02 05:12:06;;;;;;;;;;;10.70;99.90;;;;;;5037930;28;19928;-68
2022/11/02 05:14:32;;;;;;;;;;;10.70;99.90;;;;;;5054775;28;19920;-68
2022/11/02 05:16:57;;;;;;;;;;;10.70;99.90;;;;;;5070777;28;19924;-68
2022/11/02 05:19:23;;;;;;;;;;;10.60;99.90;;;;;;5048251;28;19963;-68
2022/11/02 05:21:48;;;;;;;;;;;10.60;99.90;;;;;;5051297;28;20370;-69
2022/11/02 05:24:14;;;;;;;;;;;10.60;99.90;;;;;;5037380;28;20464;-68
2022/11/02 05:26:39;;;;;;;;;;;10.70;99.90;;;;;;5072479;28;19921;-68
2022/11/02 05:29:05;;;;;;;;;;;10.70;99.90;;;;;;5071051;28;20003;-68
2022/11/02 05:31:30;;;;;;;;;;;10.70;99.90;;;;;;5051387;28;19920;-68
2022/11/02 05:33:56;;;;;;;;;;;10.70;99.90;;;;;;5072669;28;19924;-68
2022/11/02 05:36:21;;;;;;;;;;;10.70;99.90;;;;;;5067627;28;20368;-68
2022/11/02 05:38:47;;;;;;;;;;;10.70;99.90;;;;;;5054792;28;19975;-68
2022/11/02 05:41:12;;;;;;;;;;;10.70;99.90;;;;;;5040151;28;19970;-69
2022/11/02 05:43:38;;;;;;;;;;;10.70;99.90;;;;;;5054726;28;19929;-68
2022/11/02 05:46:03;;;;;;;;;;;10.70;99.90;;;;;;5054657;28;19920;-68
2022/11/02 05:48:32;;;;;;;;;;;10.70;99.90;;;;;;5052278;28;19920;-68
2022/11/02 05:50:59;;;;;;;;;;;10.70;99.90;;;;;;5072336;28;19960;-68
2022/11/02 05:53:25;;;;;;;;;;;10.70;99.90;;;;;;5049952;28;19925;-68
2022/11/02 05:55:51;;;;;;;;;;;10.70;99.90;;;;;;5070403;28;20325;-68
2022/11/02 05:58:16;;;;;;;;;;;10.70;99.90;;;;;;5054280;28;19920;-68
2022/11/02 06:00:42;;;;;;;;;;;10.70;99.90;;;;;;5037815;28;20007;-68
2022/11/02 06:03:07;;;;;;;;;;;10.70;99.90;;;;;;5053036;28;20378;-68
2022/11/02 06:05:33;;;;;;;;;;;10.70;99.90;;;;;;5053758;28;19928;-68
2022/11/02 06:07:59;;;;;;;;;;;10.60;99.90;;;;;;5056959;28;19927;-68
2022/11/02 06:10:28;;;;;;;;;;;10.60;99.90;;;;;;5054690;28;19928;-68
2022/11/02 06:12:58;;;;;;;;;;;10.60;99.90;;;;;;5037542;28;20461;-68
2022/11/02 06:15:23;;;;;;;;;;;10.60;99.90;;;;;;5068620;28;20054;-68
2022/11/02 06:17:50;;;;;;;;;;;10.50;99.90;;;;;;5051534;28;20039;-69
2022/11/02 06:20:16;;;;;;;;;;;10.40;99.90;;;;;;5050520;28;20484;-69
2022/11/02 06:22:41;;;;;;;;;;;10.40;99.90;;;;;;5052044;28;19976;-69
2022/11/02 06:25:07;;;;;;;;;;;10.40;99.90;;;;;;5069771;28;19924;-69
2022/11/02 06:27:32;;;;;;;;;;;10.30;99.90;;;;;;5046055;28;19921;-68
2022/11/02 06:29:58;;;;;;;;;;;10.40;99.90;;;;;;5024512;28;20089;-68
2022/11/02 06:32:23;;;;;;;;;;;10.40;99.90;;;;;;5046184;28;19927;-68
2022/11/02 06:34:49;;;;;;;;;;;10.40;99.90;;;;;;5046813;28;20006;-68
2022/11/02 06:37:14;;;;;;;;;;;10.40;99.90;;;;;;5041007;28;19929;-69
2022/11/02 06:39:40;;;;;;;;;;;10.50;99.90;;;;;;5045983;28;19945;-68
2022/11/02 06:42:05;;;;;;;;;;;10.60;99.90;;;;;;5052325;28;19924;-68
2022/11/02 06:44:31;;;;;;;;;;;10.60;99.90;;;;;;5046429;28;20014;-68
2022/11/02 06:46:56;;;;;;;;;;;10.70;99.90;;;;;;5050046;28;19924;-68
2022/11/02 06:49:22;;;;;;;;;;;10.70;99.90;;;;;;5048588;28;19920;-68
2022/11/02 06:51:51;;;;;;;;;;;10.80;99.90;;;;;;5048178;28;19925;-68
2022/11/02 06:54:16;;;;;;;;;;;10.70;99.90;;;;;;5050356;28;19944;-68
2022/11/02 06:56:42;;;;;;;;;;;10.80;99.90;;;;;;5042296;28;19924;-68
2022/11/02 06:59:07;;;;;;;;;;;10.80;99.90;;;;;;5049540;28;19931;-67
2022/11/02 07:01:33;;;;;;;;;;;10.90;99.90;;;;;;5040341;28;20019;-68
2022/11/02 07:03:59;;;;;;;;;;;10.80;99.90;;;;;;5034609;28;19931;-68
2022/11/02 07:06:25;;;;;;;;;;;10.80;99.90;;;;;;5050883;28;20008;-68
2022/11/02 07:08:50;;;;;;;;;;;10.70;99.90;;;;;;5054104;28;20349;-68
2022/11/02 07:11:16;;;;;;;;;;;10.80;99.90;;;;;;5046373;28;19933;-68
2022/11/02 07:13:41;;;;;;;;;;;10.80;99.90;;;;;;5061885;28;20474;-68
2022/11/02 07:16:07;;;;;;;;;;;10.90;99.90;;;;;;5047721;28;20003;-68
2022/11/02 07:18:32;;;;;;;;;;;11.00;99.90;;;;;;5050126;28;19932;-68
2022/11/02 07:20:58;;;;;;;;;;;11.00;99.90;;;;;;5052238;28;19921;-68
2022/11/02 07:23:23;;;;;;;;;;;11.00;99.90;;;;;;5050786;28;19929;-68
2022/11/02 07:25:49;;;;;;;;;;;11.00;99.90;;;;;;5053436;28;20012;-68
2022/11/02 07:28:15;;;;;;;;;;;11.10;99.90;;;;;;5052638;28;19921;-68
2022/11/02 07:30:40;;;;;;;;;;;11.10;99.90;;;;;;5045429;28;19929;-68
2022/11/02 07:33:06;;;;;;;;;;;11.10;99.90;;;;;;5056264;28;19999;-68
2022/11/02 07:35:33;;;;;;;;;;;11.10;99.90;;;;;;5066437;28;19930;-68
2022/11/02 07:38:08;;;;;;;;;;;11.10;99.90;;;;;;5051071;28;19969;-68
2022/11/02 07:40:35;;;;;;;;;;;11.10;99.90;;;;;;5042547;28;19929;-68
2022/11/02 07:43:00;;;;;;;;;;;11.00;99.90;;;;;;5051937;28;20362;-68
2022/11/02 07:45:28;;;;;;;;;;;11.00;99.90;;;;;;5044151;28;19931;-68
2022/11/02 07:47:53;;;;;;;;;;;11.00;99.90;;;;;;5042979;28;19956;-68
2022/11/02 07:50:20;;;;;;;;;;;11.00;99.90;;;;;;5048987;28;20369;-68
2022/11/02 07:52:46;;;;;;;;;;;11.10;99.90;;;;;;5058818;28;19924;-68
2022/11/02 07:55:13;;;;;;;;;;;11.00;99.90;;;;;;5050131;28;20421;-68
2022/11/02 07:57:38;;;;;;;;;;;11.10;99.90;;;;;;5067681;28;20484;-68
2022/11/02 08:00:04;;;;;;;;;;;11.10;99.90;;;;;;5070450;28;19928;-67
2022/11/02 08:02:29;;;;;;;;;;;11.00;99.90;;;;;;5070277;28;20046;-68
2022/11/02 08:04:55;;;;;;;;;;;11.10;99.90;;;;;;5052999;28;20378;-68
2022/11/02 08:07:20;;;;;;;;;;;11.10;99.90;;;;;;5052513;28;19935;-68
2022/11/02 08:09:46;;;;;;;;;;;11.20;99.90;;;;;;5053154;28;19921;-68
2022/11/02 08:12:11;;;;;;;;;;;11.30;99.90;;;;;;5052052;28;20647;-68
2022/11/02 08:14:37;;;;;;;;;;;11.50;99.90;;;;;;5029809;28;19958;-68
2022/11/02 08:17:02;;;;;;;;;;;11.60;99.90;;;;;;5069805;28;19933;-68
2022/11/02 08:19:28;;;;;;;;;;;11.70;99.90;;;;;;5051014;28;20296;-68
2022/11/02 08:21:55;;;;;;;;;;;11.80;99.90;;;;;;5034320;28;19932;-68
2022/11/02 08:24:20;;;;;;;;;;;11.90;99.90;;;;;;5049232;28;20012;-68
2022/11/02 08:26:46;;;;;;;;;;;11.90;99.90;;;;;;5046894;28;20015;-68
2022/11/02 08:29:11;;;;;;;;;;;12.00;99.90;;;;;;5050422;28;20007;-68
2022/11/02 08:31:37;;;;;;;;;;;12.10;99.90;;;;;;5063701;28;19946;-68
2022/11/02 08:34:02;;;;;;;;;;;12.10;99.90;;;;;;5061006;28;19921;-68
2022/11/02 08:36:27;;;;;;;;;;;12.20;99.90;;;;;;5064238;28;20041;-68
2022/11/02 08:38:53;;;;;;;;;;;12.40;99.90;;;;;;5065514;28;19929;-68
2022/11/02 08:41:18;;;;;;;;;;;12.40;99.90;;;;;;5048729;28;19920;-68
2022/11/02 08:43:44;;;;;;;;;;;12.40;99.90;;;;;;5046646;28;19924;-68
2022/11/02 08:46:09;;;;;;;;;;;12.30;99.90;;;;;;5049280;28;19973;-68
2022/11/02 08:48:35;;;;;;;;;;;12.20;99.90;;;;;;5045162;28;20046;-69
2022/11/02 08:51:01;;;;;;;;;;;12.20;99.90;;;;;;5067149;28;19935;-69
2022/11/02 08:53:27;;;;;;;;;;;12.20;99.90;;;;;;5046524;28;19928;-68
2022/11/02 08:55:55;;;;;;;;;;;12.30;99.90;;;;;;5044070;28;19931;-68
2022/11/02 08:58:20;;;;;;;;;;;12.40;99.90;;;;;;5050984;28;20373;-68
2022/11/02 09:00:46;;;;;;;;;;;12.40;99.90;;;;;;5045550;28;19960;-68
2022/11/02 09:03:12;;;;;;;;;;;12.50;99.90;;;;;;5048268;28;19928;-68
2022/11/02 09:05:39;;;;;;;;;;;12.70;99.90;;;;;;5049709;28;20004;-68
2022/11/02 09:08:06;;;;;;;;;;;12.70;99.90;;;;;;5048756;28;19928;-69
2022/11/02 09:10:32;;;;;;;;;;;12.70;99.90;;;;;;5045589;28;20278;-69
2022/11/02 09:12:59;;;;;;;;;;;12.70;99.90;;;;;;5047600;28;19921;-69
2022/11/02 09:15:25;;;;;;;;;;;12.70;99.90;;;;;;5046271;28;20449;-69
2022/11/02 09:17:50;;;;;;;;;;;12.70;99.90;;;;;;5029999;28;20003;-69
2022/11/02 09:20:16;;;;;;;;;;;12.80;99.90;;;;;;5048783;28;20016;-69
2022/11/02 09:22:42;;;;;;;;;;;12.80;99.90;;;;;;5046429;28;19931;-69
2022/11/02 09:25:08;;;;;;;;;;;12.90;99.90;;;;;;5064728;28;19921;-69
2022/11/02 09:27:33;;;;;;;;;;;12.80;99.90;;;;;;5048164;28;19974;-69
2022/11/02 09:29:59;;;;;;;;;;;12.80;99.90;;;;;;5061601;28;20298;-68
2022/11/02 09:32:24;;;;;;;;;;;12.80;99.90;;;;;;5048020;28;20008;-69
2022/11/02 09:34:51;;;;;;;;;;;12.90;99.90;;;;;;5066528;28;19920;-68
2022/11/02 09:37:16;;;;;;;;;;;12.80;99.90;;;;;;5066132;28;19951;-68
2022/11/02 09:39:42;;;;;;;;;;;12.80;99.90;;;;;;5046723;28;19979;-68
2022/11/02 09:42:10;;;;;;;;;;;12.80;99.90;;;;;;5046866;28;20020;-68
2022/11/02 09:44:45;;;;;;;;;;;12.70;99.90;;;;;;5049553;28;19978;-68
2022/11/02 09:47:10;;;;;;;;;;;12.80;99.90;;;;;;5046858;28;19928;-68
2022/11/02 09:49:36;;;;;;;;;;;12.80;99.90;;;;;;5068806;28;20447;-68
2022/11/02 09:52:02;;;;;;;;;;;12.90;99.90;;;;;;5033400;28;20370;-68
2022/11/02 09:54:40;;;;;;;;;;;12.90;99.90;;;;;;5052831;28;20418;-68
2022/11/02 09:57:15;;;;;;;;;;;13.00;99.90;;;;;;5071381;28;19982;-68
2022/11/02 09:59:40;;;;;;;;;;;13.00;99.90;;;;;;5052663;28;19970;-68
2022/11/02 10:02:21;;;;;;;;;;;13.10;99.90;;;;;;5065776;28;19929;-68
2022/11/02 10:05:02;;;;;;;;;;;13.20;99.90;;;;;;5047129;28;19925;-68
2022/11/02 10:07:54;;;;;;;;;;;13.20;99.90;;;;;;5042657;28;20398;-68
2022/11/02 10:10:28;;;;;;;;;;;13.40;99.90;;;;;;5047344;28;19927;-69
2022/11/02 10:12:57;;;;;;;;;;;13.30;99.90;;;;;;5055239;28;19928;-69
2022/11/02 10:15:27;;;;;;;;;;;13.40;99.90;;;;;;5069464;28;20537;-69
2022/11/02 10:17:54;;;;;;;;;;;13.50;99.90;;;;;;5047896;28;19928;-69
2022/11/02 10:20:19;;;;;;;;;;;13.60;99.90;;;;;;5043969;28;19924;-69
2022/11/02 10:22:45;;;;;;;;;;;13.70;99.90;;;;;;5050553;28;19935;-69
2022/11/02 10:25:13;;;;;;;;;;;13.60;99.90;;;;;;5048679;28;19932;-70
2022/11/02 10:27:39;;;;;;;;;;;13.70;99.90;;;;;;5049871;28;20377;-70
2022/11/02 10:30:06;;;;;;;;;;;13.70;99.90;;;;;;5037572;28;20005;-71
2022/11/02 10:32:34;;;;;;;;;;;13.70;99.90;;;;;;5041397;28;20270;-71
2022/11/02 10:35:02;;;;;;;;;;;13.80;99.90;;;;;;5066269;28;19975;-71
2022/11/02 10:37:40;;;;;;;;;;;13.80;99.90;;;;;;5068872;28;19931;-71
2022/11/02 10:40:19;;;;;;;;;;;13.80;99.90;;;;;;5062033;28;19925;-70
2022/11/02 10:42:59;;;;;;;;;;;13.90;99.90;;;;;;5046933;28;19932;-69
2022/11/02 10:45:43;;;;;;;;;;;14.00;99.90;;;;;;5035801;28;19971;-69
2022/11/02 10:48:17;;;;;;;;;;;14.00;99.90;;;;;;5050574;28;19969;-70
2022/11/02 10:50:45;;;;;;;;;;;14.10;99.90;;;;;;5052217;28;19920;-69
2022/11/02 10:53:12;;;;;;;;;;;14.10;99.90;;;;;;5067676;28;19931;-69
2022/11/02 10:55:47;;;;;;;;;;;14.00;99.90;;;;;;5052129;28;19932;-70
2022/11/02 10:58:16;;;;;;;;;;;14.10;99.90;;;;;;5052033;28;19925;-70
2022/11/02 11:00:42;;;;;;;;;;;14.10;99.90;;;;;;5067121;28;20914;-70
2022/11/02 11:03:09;;;;;;;;;;;14.20;99.90;;;;;;5045264;28;19973;-70
2022/11/02 11:05:53;;;;;;;;;;;14.00;99.90;;;;;;5059798;28;19960;-69
2022/11/02 11:08:40;;;;;;;;;;;13.90;99.90;;;;;;5047977;28;19924;-69
2022/11/02 11:11:09;;;;;;;;;;;14.00;99.90;;;;;;5023281;28;19925;-70
2022/11/02 11:13:35;;;;;;;;;;;14.10;99.90;;;;;;5049675;28;19925;-69
2022/11/02 11:16:02;;;;;;;;;;;14.20;99.90;;;;;;5066754;28;19935;-69
2022/11/02 11:18:28;;;;;;;;;;;14.20;99.90;;;;;;5051688;28;19927;-69
2022/11/02 11:20:54;;;;;;;;;;;14.30;99.90;;;;;;5051353;28;19928;-69
2022/11/02 11:23:21;;;;;;;;;;;14.40;99.90;;;;;;5050103;28;19928;-69
2022/11/02 11:26:00;;;;;;;;;;;14.60;99.90;;;;;;5047206;28;19921;-70
2022/11/02 11:28:25;;;;;;;;;;;14.80;99.90;;;;;;5047710;28;19921;-70
2022/11/02 11:31:02;;;;;;;;;;;14.90;99.90;;;;;;5054113;28;19920;-70
2022/11/02 11:33:29;;;;;;;;;;;14.80;99.90;;;;;;5078170;28;19967;-71
2022/11/02 11:35:54;;;;;;;;;;;14.80;99.90;;;;;;5052995;28;19920;-69
2022/11/02 11:38:21;;;;;;;;;;;14.60;99.90;;;;;;5050080;28;19931;-69
2022/11/02 11:40:52;;;;;;;;;;;14.60;99.90;;;;;;5051433;28;19932;-69
2022/11/02 11:43:19;;;;;;;;;;;14.50;99.90;;;;;;5042076;28;19932;-69
2022/11/02 11:45:58;;;;;;;;;;;14.40;99.90;;;;;;5052559;28;19920;-69
2022/11/02 11:48:23;;;;;;;;;;;14.50;99.90;;;;;;5044797;28;19921;-69
2022/11/02 11:50:49;;;;;;;;;;;14.50;99.90;;;;;;5047023;28;19943;-69
2022/11/02 11:53:23;;;;;;;;;;;14.60;99.90;;;;;;5053490;28;19920;-69
2022/11/02 11:55:50;;;;;;;;;;;14.50;99.90;;;;;;5051765;28;20329;-69
2022/11/02 11:58:20;;;;;;;;;;;14.70;99.90;;;;;;5047842;28;19929;-69
2022/11/02 12:01:00;;;;;;;;;;;14.70;99.90;;;;;;5038597;28;19929;-69
2022/11/02 12:03:25;;;;;;;;;;;14.70;99.90;;;;;;5045279;28;20472;-69
2022/11/02 12:05:57;;;;;;;;;;;14.80;99.90;;;;;;5035616;28;19932;-69
2022/11/02 12:08:28;;;;;;;;;;;14.80;99.90;;;;;;5053817;28;19933;-69
2022/11/02 12:11:06;;;;;;;;;;;15.00;99.90;;;;;;5053462;28;19931;-69
2022/11/02 12:13:38;;;;;;;;;;;15.00;99.90;;;;;;5056365;28;20396;-68
2022/11/02 12:16:10;;;;;;;;;;;15.00;99.90;;;;;;5056113;28;20337;-69
2022/11/02 12:18:42;;;;;;;;;;;15.00;99.90;;;;;;5048283;28;19970;-68
2022/11/02 12:21:14;;;;;;;;;;;15.00;99.90;;;;;;5055127;28;19932;-69
2022/11/02 12:24:09;;;;;;;;;;;14.90;99.90;;;;;;5056282;28;20368;-69
2022/11/02 12:26:57;;;;;;;;;;;14.90;99.90;;;;;;4985485;28;19932;-69
2022/11/02 12:29:49;;;;;;;;;;;14.80;99.90;;;;;;5052712;28;19935;-69
2022/11/02 12:32:33;;;;;;;;;;;14.80;99.90;;;;;;5046691;28;20002;-69
2022/11/02 12:35:01;;;;;;;;;;;14.70;99.90;;;;;;5049196;28;19925;-69
2022/11/02 12:37:30;;;;;;;;;;;14.70;99.90;;;;;;5042095;28;19978;-68
2022/11/02 12:40:05;;;;;;;;;;;14.70;99.90;;;;;;5052896;28;19931;-68
2022/11/02 12:42:32;;;;;;;;;;;14.70;99.90;;;;;;5046692;28;20401;-68
2022/11/02 12:45:00;;;;;;;;;;;14.60;99.90;;;;;;5055017;28;19931;-70
2022/11/02 12:47:35;;;;;;;;;;;14.50;99.90;;;;;;5050047;28;20018;-69
2022/11/02 12:50:09;;;;;;;;;;;14.30;99.90;;;;;;5034358;28;20393;-69
2022/11/02 12:52:35;;;;;;;;;;;14.20;99.90;;;;;;5064324;28;19928;-69
2022/11/02 12:55:02;;;;;;;;;;;14.00;99.90;;;;;;5054734;28;19940;-69
2022/11/02 12:57:30;;;;;;;;;;;13.90;99.90;;;;;;5054346;28;19974;-69
2022/11/02 13:00:00;;;;;;;;;;;13.80;99.90;;;;;;5033028;28;20235;-69
2022/11/02 13:02:34;;;;;;;;;;;13.70;99.90;;;;;;5051492;28;19925;-69
2022/11/02 13:05:16;;;;;;;;;;;13.70;99.90;;;;;;5054117;28;19993;-69
2022/11/02 13:07:45;;;;;;;;;;;13.90;99.90;;;;;;5042425;23;20134;-69
2022/11/02 13:10:18;;;;;;;;;;;14.00;99.90;;;;;;5021073;28;19990;-69
2022/11/02 13:12:46;;;;;;;;;;;14.20;99.90;;;;;;5010616;28;19921;-69
2022/11/02 13:15:16;;;;;;;;;;;14.20;99.90;;;;;;5031066;28;20004;-70
2022/11/02 13:17:47;;;;;;;;;;;14.30;99.90;;;;;;5016785;28;20445;-69
2022/11/02 13:20:20;;;;;;;;;;;14.30;99.90;;;;;;5010365;28;19995;-69
2022/11/02 13:23:09;;;;;;;;;;;14.40;99.90;;;;;;5003429;28;19948;-69
2022/11/02 13:25:38;;;;;;;;;;;14.40;99.90;;;;;;4995591;28;19929;-69
2022/11/02 13:28:09;;;;;;;;;;;14.50;99.90;;;;;;5035317;28;19933;-69
2022/11/02 13:30:35;;;;;;;;;;;14.50;99.90;;;;;;5014234;28;20313;-69
2022/11/02 13:33:11;;;;;;;;;;;14.40;99.90;;;;;;5021864;28;19924;-69
2022/11/02 13:35:39;;;;;;;;;;;14.40;99.90;;;;;;5019824;28;20398;-69
2022/11/02 13:38:10;;;;;;;;;;;14.40;99.90;;;;;;5025973;28;20004;-69
2022/11/02 13:40:47;;;;;;;;;;;14.40;99.90;;;;;;5023909;28;19925;-68
2022/11/02 13:43:32;;;;;;;;;;;14.30;99.90;;;;;;5014132;28;19925;-68
2022/11/02 13:46:03;;;;;;;;;;;14.30;99.90;;;;;;5019276;28;19925;-69
2022/11/02 13:48:37;;;;;;;;;;;14.20;99.90;;;;;;5022483;28;20001;-68
2022/11/02 13:51:10;;;;;;;;;;;14.20;99.90;;;;;;5017507;28;19972;-69
2022/11/02 13:53:37;;;;;;;;;;;14.10;99.90;;;;;;5042936;28;19922;-69
2022/11/02 13:56:11;;;;;;;;;;;14.00;99.90;;;;;;5012924;28;19972;-68
2022/11/02 13:58:42;;;;;;;;;;;13.90;99.90;;;;;;4991229;28;19928;-68
2022/11/02 14:01:09;;;;;;;;;;;13.80;99.90;;;;;;4999110;28;19929;-68
2022/11/02 14:03:49;;;;;;;;;;;13.70;99.90;;;;;;5015350;28;19979;-68
2022/11/02 14:06:16;;;;;;;;;;;13.60;99.90;;;;;;5030784;28;20353;-68
2022/11/02 14:08:51;;;;;;;;;;;13.50;99.90;;;;;;5010165;28;19925;-68
2022/11/02 14:11:17;;;;;;;;;;;13.40;99.90;;;;;;5037017;28;20016;-69
2022/11/02 14:13:55;;;;;;;;;;;13.30;99.90;;;;;;5022096;28;20016;-69
2022/11/02 14:16:39;;;;;;;;;;;13.30;99.90;;;;;;5032385;28;20010;-69
2022/11/02 14:19:16;;;;;;;;;;;13.40;99.90;;;;;;5030555;28;19932;-69
2022/11/02 14:21:44;;;;;;;;;;;13.40;99.90;;;;;;5014537;28;19932;-69
2022/11/02 14:24:28;;;;;;;;;;;13.50;99.90;;;;;;5014303;28;20429;-69
2022/11/02 14:26:55;;;;;;;;;;;13.60;99.90;;;;;;5018951;28;19925;-69
2022/11/02 14:29:46;;;;;;;;;;;13.70;99.90;;;;;;4996100;28;19947;-68
2022/11/02 14:32:22;;;;;;;;;;;13.70;99.90;;;;;;5017321;28;19931;-69
2022/11/02 14:35:08;;;;;;;;;;;13.80;99.90;;;;;;5021628;28;20347;-69
2022/11/02 14:37:51;;;;;;;;;;;13.70;99.90;;;;;;5030541;28;19921;-69
2022/11/02 14:40:26;;;;;;;;;;;13.70;99.90;;;;;;5014792;28;20031;-69
2022/11/02 14:42:51;;;;;;;;;;;13.60;99.90;;;;;;5013977;28;20015;-69